^^
Station Historical Data
Daily Summary for November 6, 2017 Units:  Metric    English   Both
« Previous Day
Next Day »
Daily Weekly Monthly Yearly Custom
  High: Low: Average:
Temperature: 38.6 °C 21.7 °C 28.9 °C
Dew Point: 9.1 °C 1 °C 6.5 °C
Humidity: 44% 12% 27%
Wind Speed: 25.9km/h 0km/h 10km/h
Wind Gust: 33.8km/h - -
Wind- - SSW
Pressure: 1008.7 hPa 1002.3 hPa -
Precipitation: 0 mm    
Historical Graphs
 
 
Tabular Data for November 6, 2017
Time Temperature Dew Point Pressure Wind Wind Speed Wind Gust Humidity Rainfall Rate (Hourly) solar Conditions
00:04 28.3 °C 7 °C 1008.4 hPa SW 17.7 km/h 20.9 km/h 26% 0 mm 0.0 W/m2
00:09 28.1 °C 7.3 °C 1008.4 hPa SSW 14.3 km/h 24.1 km/h 27% 0 mm 0.0 W/m2
00:15 27.9 °C 7.2 °C 1008.4 hPa SSW 19.5 km/h 19.5 km/h 27% 0 mm 0.0 W/m2
00:20 27.9 °C 7.2 °C 1008.4 hPa SSW 19.5 km/h 22.5 km/h 27% 0 mm 0.0 W/m2
00:25 27.9 °C 7.2 °C 1008.4 hPa SSW 16.3 km/h 20.9 km/h 27% 0 mm 0.0 W/m2
00:30 27.9 °C 7.2 °C 1008.4 hPa SSW 14.3 km/h 17.7 km/h 27% 0 mm 0.0 W/m2
00:45 27.6 °C 7.4 °C 1008 hPa SSW 19.5 km/h 19.5 km/h 28% 0 mm 0.0 W/m2
00:50 27.6 °C 7.4 °C 1008 hPa SSW 17.7 km/h 22.5 km/h 28% 0 mm 0.0 W/m2
00:55 27.6 °C 7.4 °C 1008 hPa SSW 17.7 km/h 17.7 km/h 28% 0 mm 0.0 W/m2
01:05 27.3 °C 7.7 °C 1008 hPa SSW 11.1 km/h 11.3 km/h 29% 0 mm 0.0 W/m2
01:10 27 °C 7.4 °C 1008 hPa SSW 11.1 km/h 11.3 km/h 29% 0 mm 0.0 W/m2
01:15 26.8 °C 7.3 °C 1008 hPa SSW 7.9 km/h 8 km/h 29% 0 mm 0.0 W/m2
01:20 26.6 °C 7.6 °C 1008 hPa SSW 6.4 km/h 11.3 km/h 30% 0 mm 0.0 W/m2
01:30 26.2 °C 7.3 °C 1008 hPa SSW 3.2 km/h 6.4 km/h 30% 0 mm 0.0 W/m2
01:36 26.1 °C 7.2 °C 1008 hPa Calm     30% 0 mm 0.0 W/m2
01:42 26 °C 7.6 °C 1008 hPa Calm     31% 0 mm 0.0 W/m2
01:47 26 °C 7.6 °C 1007.7 hPa Calm     31% 0 mm 0.0 W/m2
01:52 26.1 °C 7.6 °C 1007.7 hPa Calm     31% 0 mm 0.0 W/m2
01:57 26.1 °C 7.6 °C 1007.7 hPa Calm     31% 0 mm 0.0 W/m2
02:07 25.9 °C 7.5 °C 1007.7 hPa SSW 6.4 km/h 9.7 km/h 31% 0 mm 0.0 W/m2
02:12 25.6 °C 7.7 °C 1007.7 hPa SSW 11.1 km/h 11.3 km/h 32% 0 mm 0.0 W/m2
02:17 25.4 °C 7.5 °C 1007.7 hPa SSW 11.1 km/h 11.3 km/h 32% 0 mm 0.0 W/m2
02:22 25.3 °C 7.4 °C 1007.7 hPa SSW 9.7 km/h 12.9 km/h 32% 0 mm 0.0 W/m2
02:27 25.3 °C 7.9 °C 1007.3 hPa SSW 13 km/h 13 km/h 33% 0 mm 0.0 W/m2
02:33 25.2 °C 7.8 °C 1007.3 hPa SSW 11.1 km/h 12.9 km/h 33% 0 mm 0.0 W/m2
02:43 25.2 °C 7.8 °C 1007.3 hPa SSW 11.1 km/h 11.3 km/h 33% 0 mm 0.0 W/m2
02:48 25.1 °C 7.7 °C 1007.3 hPa SSW 6.4 km/h 12.9 km/h 33% 0 mm 0.0 W/m2
02:53 24.9 °C 8 °C 1007.3 hPa SSW 6.4 km/h 9.7 km/h 34% 0 mm 0.0 W/m2
02:58 24.8 °C 7.9 °C 1007.3 hPa SSW 3.2 km/h 6.4 km/h 34% 0 mm 0.0 W/m2
03:03 24.7 °C 8.2 °C 1007.3 hPa SSW 3.2 km/h 4.8 km/h 35% 0 mm 0.0 W/m2
03:08 24.4 °C 7.9 °C 1007.3 hPa SSW 7.9 km/h 8 km/h 35% 0 mm 0.0 W/m2
03:13 24.3 °C 7.9 °C 1007.3 hPa SSW 9.7 km/h 9.7 km/h 35% 0 mm 0.0 W/m2
03:18 24.2 °C 8.2 °C 1007.3 hPa SSW 9.7 km/h 11.3 km/h 36% 0 mm 0.0 W/m2
03:24 24.3 °C 8.3 °C 1007.3 hPa SSW 13 km/h 13 km/h 36% 0 mm 0.0 W/m2
03:29 24.4 °C 8.4 °C 1007.3 hPa SSW 14.3 km/h 14.5 km/h 36% 0 mm 0.0 W/m2
03:34 24.4 °C 8.4 °C 1007.3 hPa SSW 6.4 km/h 9.7 km/h 36% 0 mm 0.0 W/m2
03:39 24.4 °C 8.4 °C 1007.3 hPa SSW 4.7 km/h 6.4 km/h 36% 0 mm 0.0 W/m2
03:44 24.3 °C 8.7 °C 1007.3 hPa SSW 7.9 km/h 8 km/h 37% 0 mm 0.0 W/m2
03:49 24.2 °C 8.6 °C 1007.3 hPa SSW 9.7 km/h 11.3 km/h 37% 0 mm 0.0 W/m2
03:54 24.2 °C 8.6 °C 1007.3 hPa SSW 9.7 km/h 11.3 km/h 37% 0 mm 0.0 W/m2
03:59 24.2 °C 8.6 °C 1007.3 hPa SSW 11.1 km/h 11.3 km/h 37% 0 mm 0.0 W/m2
04:05 24.1 °C 8.5 °C 1007.3 hPa SSW 7.9 km/h 11.3 km/h 37% 0 mm 0.0 W/m2
04:10 23.9 °C 8.3 °C 1007.3 hPa SSW 9.7 km/h 9.7 km/h 37% 0 mm 0.0 W/m2
04:20 23.5 °C 8.4 °C 1007.3 hPa SSW 4.7 km/h 6.4 km/h 38% 0 mm 0.0 W/m2
04:25 23.2 °C 8.1 °C 1007.3 hPa SSW 4.7 km/h 8 km/h 38% 0 mm 0.0 W/m2
04:30 23.2 °C 8.1 °C 1007.3 hPa SSW 7.9 km/h 9.7 km/h 38% 0 mm 0.0 W/m2
04:35 23.2 °C 8.5 °C 1007.3 hPa SSW 9.7 km/h 11.3 km/h 39% 0 mm 0.0 W/m2
04:41 23.2 °C 8.5 °C 1007.3 hPa SSW 9.7 km/h 11.3 km/h 39% 0 mm 0.0 W/m2
04:46 23.2 °C 8.5 °C 1007.3 hPa SSW 9.7 km/h 9.7 km/h 39% 0 mm 0.0 W/m2
04:51 23.1 °C 8.4 °C 1007.3 hPa SSW 9.7 km/h 11.3 km/h 39% 0 mm 0.0 W/m2
04:56 23.1 °C 8.4 °C 1007.3 hPa SSW 6.4 km/h 9.7 km/h 39% 0 mm 0.0 W/m2
05:01 22.9 °C 8.2 °C 1007.3 hPa SSW 7.9 km/h 9.7 km/h 39% 0 mm 0.0 W/m2
05:06 22.9 °C 8.2 °C 1007.3 hPa SSW 6.4 km/h 8 km/h 39% 0 mm 0.0 W/m2
05:22 22.6 °C 8.3 °C 1007.3 hPa SSW 6.4 km/h 6.4 km/h 40% 0 mm 0.0 W/m2
05:27 22.5 °C 8.6 °C 1007.3 hPa SSW 7.9 km/h 9.7 km/h 41% 0 mm 0.0 W/m2
05:32 22.5 °C 8.6 °C 1007.3 hPa SSW 6.4 km/h 8 km/h 41% 0 mm 0.0 W/m2
05:37 22.4 °C 8.5 °C 1007.3 hPa SSW 6.4 km/h 8 km/h 41% 0 mm 0.0 W/m2
05:43 22.3 °C 8.8 °C 1007.3 hPa SSW 6.4 km/h 6.4 km/h 42% 0 mm 0.0 W/m2
05:49 22.3 °C 8.8 °C 1007.3 hPa SSW 6.4 km/h 6.4 km/h 42% 0 mm 0.0 W/m2
05:58 21.8 °C 8.7 °C 1007.3 hPa SSW 4.7 km/h 8 km/h 43% 0 mm 5.0 W/m2
06:04 21.7 °C 8.6 °C 1007.7 hPa SSW 4.7 km/h 6.4 km/h 43% 0 mm 9.0 W/m2
06:09 21.7 °C 8.9 °C 1007.7 hPa SSW 6.4 km/h 8 km/h 44% 0 mm 12.0 W/m2
06:14 21.9 °C 8.8 °C 1007.7 hPa SSW 11.1 km/h 11.3 km/h 43% 0 mm 16.0 W/m2
06:19 22.2 °C 8.7 °C 1007.7 hPa SSW 6.4 km/h 11.3 km/h 42% 0 mm 23.0 W/m2
06:23 22.4 °C 8.9 °C 1007.7 hPa SSW 7.9 km/h 9.7 km/h 42% 0 mm 33.0 W/m2
06:34 22.7 °C 9.1 °C 1008 hPa SSW 6.4 km/h 8 km/h 42% 0 mm 62.0 W/m2
06:39 22.7 °C 9.1 °C 1008 hPa SSW 7.9 km/h 9.7 km/h 42% 0 mm 76.0 W/m2
06:45 22.8 °C 8.9 °C 1008 hPa SSW 6.4 km/h 6.4 km/h 41% 0 mm 93.0 W/m2
07:09 23.8 °C 9 °C 1008.4 hPa SSW 7.9 km/h 11.3 km/h 39% 0 mm 171.0 W/m2
07:25 24.3 °C 8.7 °C 1008.4 hPa SSW 11.1 km/h 11.3 km/h 37% 0 mm 229.0 W/m2
07:41 24.8 °C 8.7 °C 1008.7 hPa SSW 6.4 km/h 11.3 km/h 36% 0 mm 278.0 W/m2
07:57 25.4 °C 8 °C 1008.7 hPa SSW 7.9 km/h 11.3 km/h 33% 0 mm 332.0 W/m2
08:11 25.9 °C 7.5 °C 1008.4 hPa SSW 7.9 km/h 12.9 km/h 31% 0 mm 385.0 W/m2
08:27 26.4 °C 7.4 °C 1008.4 hPa SSW 13 km/h 13 km/h 30% 0 mm 436.0 W/m2
08:45 27.1 °C 7 °C 1008.4 hPa SSW 11.1 km/h 12.9 km/h 28% 0 mm 503.0 W/m2
09:00 27.7 °C 7 °C 1008.4 hPa SSW 9.7 km/h 11.3 km/h 27% 0 mm 550.0 W/m2
09:16 28.3 °C 7 °C 1008.4 hPa SSW 6.4 km/h 11.3 km/h 26% 0 mm 599.0 W/m2
09:30 28.9 °C 6.9 °C 1008.4 hPa Calm     25% 0 mm 642.0 W/m2
09:39 29.4 °C 6.7 °C 1008.4 hPa Calm     24% 0 mm 664.0 W/m2
09:51 29.9 °C 6.5 °C 1008.4 hPa Calm     23% 0 mm 710.0 W/m2
10:09 30.6 °C 6.5 °C 1008 hPa Calm     22% 0 mm 752.0 W/m2
10:20 31.1 °C 6.2 °C 1008 hPa Calm     21% 0 mm 773.0 W/m2
10:40 32.2 °C 5.7 °C 1008 hPa Calm     19% 0 mm 814.0 W/m2
10:51 32.5 °C 5.9 °C 1007.7 hPa Calm     19% 0 mm 838.0 W/m2
11:01 33.2 °C 6.5 °C 1007.7 hPa SSW 9.7 km/h 9.7 km/h 19% 0 mm 856.0 W/m2
11:11 33.1 °C 5.6 °C 1007.3 hPa Calm   1.6 km/h 18% 0 mm 872.0 W/m2
11:22 33.8 °C 6.2 °C 1007.3 hPa SSW 9.7 km/h 16.1 km/h 18% 0 mm 886.0 W/m2
11:32 34 °C 5.5 °C 1007.3 hPa SW 7.9 km/h 9.7 km/h 17% 0 mm 898.0 W/m2
11:41 34.6 °C 6 °C 1007 hPa SW 6.4 km/h 11.3 km/h 17% 0 mm 909.0 W/m2
12:03 35.1 °C 5.5 °C 1006.7 hPa SW 3.2 km/h 11.3 km/h 16% 0 mm 932.0 W/m2
12:37 36.3 °C 5.5 °C 1006 hPa Calm   20.9 km/h 15% 0 mm 937.0 W/m2
12:57 36.8 °C 4.9 °C 1005.6 hPa SW 6.4 km/h 16.1 km/h 14% 0 mm 935.0 W/m2
13:18 37.4 °C 4.3 °C 1005.6 hPa WSW 13 km/h 24.1 km/h 13% 0 mm 925.0 W/m2
13:36 37.6 °C 4.5 °C 1005.6 hPa SW 11.1 km/h 16.1 km/h 13% 0 mm 907.0 W/m2
13:51 37.9 °C 4.7 °C 1005 hPa WSW 17.7 km/h 20.9 km/h 13% 0 mm 889.0 W/m2
14:06 37.5 °C 4.4 °C 1004.6 hPa WSW 14.3 km/h 17.7 km/h 13% 0 mm 868.0 W/m2
14:36 37.9 °C 4.7 °C 1004.3 hPa SW 6.4 km/h 12.9 km/h 13% 0 mm 814.0 W/m2
14:50 37.8 °C 4.7 °C 1003.9 hPa SW 17.7 km/h 17.7 km/h 13% 0 mm 782.0 W/m2
14:59 38.1 °C 4.9 °C 1003.9 hPa SW 16.3 km/h 17.7 km/h 13% 0 mm 761.0 W/m2
15:07 38.1 °C 4.9 °C 1003.6 hPa Calm     13% 0 mm 735.0 W/m2
15:16 38.1 °C 3.7 °C 1003.6 hPa SW 6.4 km/h 11.3 km/h 12% 0 mm 712.0 W/m2
15:27 38 °C 4.8 °C 1003.3 hPa SW 14.3 km/h 14.5 km/h 13% 0 mm 684.0 W/m2
15:33 38.1 °C 3.7 °C 1003.3 hPa SW 9.7 km/h 12.9 km/h 12% 0 mm 671.0 W/m2
15:39 38.1 °C 3.7 °C 1003.3 hPa SSW 1.4 km/h 14.5 km/h 12% 0 mm 663.0 W/m2
15:50 38.3 °C 3.9 °C 1002.9 hPa SSW 9.7 km/h 12.9 km/h 12% 0 mm 631.0 W/m2
16:16 38.5 °C 4.1 °C 1002.9 hPa South 13 km/h 17.7 km/h 12% 0 mm 561.0 W/m2
16:26 38.3 °C 3.9 °C 1002.6 hPa South 9.7 km/h 11.3 km/h 12% 0 mm 527.0 W/m2
16:34 38 °C 3.7 °C 1002.6 hPa Calm     12% 0 mm 501.0 W/m2
16:42 38.3 °C 3.9 °C 1002.3 hPa South 24.1 km/h 24.1 km/h 12% 0 mm 294.0 W/m2
16:48 38.6 °C 4.1 °C 1002.6 hPa SSW 14.3 km/h 25.7 km/h 12% 0 mm 459.0 W/m2
16:54 38.4 °C 4 °C 1002.3 hPa SSW 25.9 km/h 29 km/h 12% 0 mm 130.0 W/m2
17:04 37.7 °C 4.6 °C 1002.3 hPa South 17.7 km/h 29 km/h 13% 0 mm 132.0 W/m2
17:15 37.3 °C 4.3 °C 1002.3 hPa SSW 20.9 km/h 20.9 km/h 13% 0 mm 116.0 W/m2
17:27 37.1 °C 4.1 °C 1002.3 hPa SSW 16.3 km/h 33.8 km/h 13% 0 mm 193.0 W/m2
17:43 36.6 °C 3.7 °C 1002.3 hPa SSW 22.7 km/h 25.7 km/h 13% 0 mm 225.0 W/m2
18:44 36.1 °C 3.3 °C 1002.3 hPa SSW 9.7 km/h 16.1 km/h 13% 0 mm 49.0 W/m2
18:58 36.1 °C 3.3 °C 1002.3 hPa SSW 17.7 km/h 24.1 km/h 13% 0 mm 26.0 W/m2
19:13 35.7 °C 3 °C 1002.3 hPa South 17.7 km/h 22.5 km/h 13% 0 mm 9.0 W/m2
19:29 35.2 °C 2.6 °C 1002.6 hPa South 22.7 km/h 27.4 km/h 13% 0 mm 0.0 W/m2
20:13 33.8 °C 2.6 °C 1003.3 hPa South 17.7 km/h 20.9 km/h 14% 0 mm 0.0 W/m2
20:30 33.4 °C 2.3 °C 1003.3 hPa South 7.9 km/h 12.9 km/h 14% 0 mm 0.0 W/m2
20:43 33.1 °C 1 °C 1003.6 hPa South 13 km/h 19.3 km/h 13% 0 mm 0.0 W/m2
20:58 32.8 °C 1.8 °C 1003.6 hPa South 16.3 km/h 20.9 km/h 14% 0 mm 0.0 W/m2
21:27 31.8 °C 3.7 °C 1003.9 hPa South 13 km/h 16.1 km/h 17% 0 mm 0.0 W/m2
21:38 31.5 °C 4.3 °C 1003.9 hPa South 13 km/h 13 km/h 18% 0 mm 0.0 W/m2
21:48 31.1 °C 4.8 °C 1003.9 hPa South 9.7 km/h 17.7 km/h 19% 0 mm 0.0 W/m2
21:59 30.8 °C 4.5 °C 1003.9 hPa South 16.3 km/h 16.3 km/h 19% 0 mm 0.0 W/m2
22:07 30.6 °C 4.3 °C 1004.3 hPa South 14.3 km/h 17.7 km/h 19% 0 mm 0.0 W/m2
22:17 30.3 °C 4.8 °C 1004.3 hPa South 13 km/h 22.5 km/h 20% 0 mm 0.0 W/m2
22:27 30.1 °C 5.4 °C 1004.3 hPa South 16.3 km/h 17.7 km/h 21% 0 mm 0.0 W/m2
22:37 29.8 °C 5.1 °C 1004.3 hPa South 19.5 km/h 19.5 km/h 21% 0 mm 0.0 W/m2
22:47 29.5 °C 5.5 °C 1004.3 hPa South 14.3 km/h 19.3 km/h 22% 0 mm 0.0 W/m2
22:55 29.2 °C 5.3 °C 1004.3 hPa South 17.7 km/h 19.3 km/h 22% 0 mm 0.0 W/m2
23:00 29.2 °C 5.3 °C 1004.3 hPa South 19.5 km/h 20.9 km/h 22% 0 mm 0.0 W/m2
23:10 29.1 °C 5.2 °C 1004.3 hPa South 14.3 km/h 17.7 km/h 22% 0 mm 0.0 W/m2
23:16 28.9 °C 5 °C 1004.3 hPa South 13 km/h 17.7 km/h 22% 0 mm 0.0 W/m2
23:25 28.7 °C 4.9 °C 1004.3 hPa South 16.3 km/h 16.3 km/h 22% 0 mm 0.0 W/m2
23:35 28.5 °C 5.4 °C 1004.3 hPa SSW 14.3 km/h 19.3 km/h 23% 0 mm 0.0 W/m2
23:41 28.3 °C 5.2 °C 1004.3 hPa SSW 14.3 km/h 17.7 km/h 23% 0 mm 0.0 W/m2
23:46 28.2 °C 5.7 °C 1003.9 hPa SSW 17.7 km/h 17.7 km/h 24% 0 mm 0.0 W/m2
23:51 28.1 °C 5.6 °C 1004.3 hPa SSW 13 km/h 16.1 km/h 24% 0 mm 0.0 W/m2
23:56 28 °C 6.1 °C 1004.3 hPa SSW 16.3 km/h 20.9 km/h 25% 0 mm 0.0 W/m2
Canyon Roadhouse, Fishriver Canyon, Namibia
Compliments of Weather Underground - 2.25 mb